This is the latest recevied weather packets stored in our database for station/object S57XZ-11. If no packets are shown the sender has not sent any weather packets the latest 10 day(s).
| Time | Temp. | Humidity | Pressure | Rain* | Wind** | Luminosity | Snow |
|---|---|---|---|---|---|---|---|
| 1777567922 | 16.11° C | 39% | 1020.1 hPa | - | - | - | - |
| 1777565222 | 16.11° C | 39% | 1020.2 hPa | - | - | - | - |
| 1777564322 | 16.11° C | 39% | 1020.2 hPa | - | - | - | - |
| 1777562522 | 16.11° C | 40% | 1020.2 hPa | - | - | - | - |
| 1777558897 | 15.56° C | 41% | 1020.2 hPa | - | - | - | - |
| 1777553497 | 14.44° C | 42% | 1020.8 hPa | - | - | - | - |
| 1777545372 | 14.44° C | 41% | 1021.9 hPa | - | - | - | - |
| 1777543547 | 14.44° C | 43% | 1022.4 hPa | - | - | - | - |
| 1777529122 | 14.44° C | 43% | 1022.3 hPa | - | - | - | - |
| 1777528198 | 15° C | 43% | 1022.5 hPa | - | - | - | - |
| 1777520073 | 15° C | 43% | 1021.7 hPa | - | - | - | - |
| 1777515572 | 15.56° C | 42% | 1021.4 hPa | - | - | - | - |
| 1777514690 | 15° C | 42% | 1021.2 hPa | - | - | - | - |
| 1777512872 | 15.56° C | 43% | 1021.3 hPa | - | - | - | - |
| 1777502923 | 16.11° C | 44% | 1020 hPa | - | - | - | - |
| 1777502023 | 16.11° C | 44% | 1020 hPa | - | - | - | - |
| 1777501123 | 16.11° C | 44% | 1019.9 hPa | - | - | - | - |
| 1777497524 | 16.11° C | 44% | 1019.3 hPa | - | - | - | - |
| 1777496625 | 16.11° C | 45% | 1018.9 hPa | - | - | - | - |
| 1777495698 | 16.11° C | 45% | 1018.8 hPa | - | - | - | - |
| 1777467723 | 17.22° C | 41% | 1016.5 hPa | - | - | - | - |
| 1777461398 | 17.22° C | 42% | 1016.8 hPa | - | - | - | - |
| 1777455075 | 17.22° C | 42% | 1016.8 hPa | - | - | - | - |
| 1777454173 | 17.22° C | 42% | 1016.7 hPa | - | - | - | - |
| 1777449673 | 17.22° C | 42% | 1016.5 hPa | - | - | - | - |
* Rain since midnight (hover to see other rain measurements)
** Current wind speed in m/s (hover to see current wind gust speed)